sensor_id;sensor_type;location;lat;lon;timestamp;P1;durP1;ratioP1;P2;durP2;ratioP2
39864;SDS011;25538;48.392;9.976;2023-01-01T00:01:11;220.73;;;197.17;;
39864;SDS011;25538;48.392;9.976;2023-01-01T00:03:39;84.90;;;76.00;;
39864;SDS011;25538;48.392;9.976;2023-01-01T00:06:06;34.25;;;30.60;;
39864;SDS011;25538;48.392;9.976;2023-01-01T00:08:36;30.40;;;27.35;;
39864;SDS011;25538;48.392;9.976;2023-01-01T00:11:03;30.48;;;27.35;;
39864;SDS011;25538;48.392;9.976;2023-01-01T00:13:30;27.45;;;24.65;;
39864;SDS011;25538;48.392;9.976;2023-01-01T00:16:02;31.45;;;28.30;;
39864;SDS011;25538;48.392;9.976;2023-01-01T00:18:29;31.80;;;28.10;;
39864;SDS011;25538;48.392;9.976;2023-01-01T00:21:05;28.17;;;25.30;;
39864;SDS011;25538;48.392;9.976;2023-01-01T00:23:34;24.63;;;22.23;;
39864;SDS011;25538;48.392;9.976;2023-01-01T00:26:00;25.98;;;23.60;;
39864;SDS011;25538;48.392;9.976;2023-01-01T00:28:26;29.80;;;24.43;;
39864;SDS011;25538;48.392;9.976;2023-01-01T00:30:52;26.92;;;23.10;;
39864;SDS011;25538;48.392;9.976;2023-01-01T00:33:18;27.07;;;24.27;;
39864;SDS011;25538;48.392;9.976;2023-01-01T00:35:44;27.20;;;24.30;;
39864;SDS011;25538;48.392;9.976;2023-01-01T00:38:10;32.70;;;29.13;;
39864;SDS011;25538;48.392;9.976;2023-01-01T00:40:36;31.00;;;27.77;;
39864;SDS011;25538;48.392;9.976;2023-01-01T00:43:02;34.43;;;30.23;;
39864;SDS011;25538;48.392;9.976;2023-01-01T00:45:27;39.30;;;31.70;;
39864;SDS011;25538;48.392;9.976;2023-01-01T00:47:53;45.10;;;37.70;;
39864;SDS011;25538;48.392;9.976;2023-01-01T00:50:20;36.80;;;32.90;;
39864;SDS011;25538;48.392;9.976;2023-01-01T00:52:46;40.78;;;34.60;;
39864;SDS011;25538;48.392;9.976;2023-01-01T00:55:13;37.58;;;33.47;;
39864;SDS011;25538;48.392;9.976;2023-01-01T00:57:39;37.03;;;33.20;;
39864;SDS011;25538;48.392;9.976;2023-01-01T01:00:05;37.10;;;33.03;;
39864;SDS011;25538;48.392;9.976;2023-01-01T01:02:32;40.47;;;34.90;;
39864;SDS011;25538;48.392;9.976;2023-01-01T01:04:58;37.13;;;33.20;;
39864;SDS011;25538;48.392;9.976;2023-01-01T01:07:25;39.22;;;35.20;;
39864;SDS011;25538;48.392;9.976;2023-01-01T01:09:51;38.50;;;34.57;;
39864;SDS011;25538;48.392;9.976;2023-01-01T01:12:17;40.07;;;35.00;;
39864;SDS011;25538;48.392;9.976;2023-01-01T01:14:43;37.30;;;33.17;;
39864;SDS011;25538;48.392;9.976;2023-01-01T01:17:09;39.80;;;33.53;;
39864;SDS011;25538;48.392;9.976;2023-01-01T01:19:35;34.77;;;31.23;;
39864;SDS011;25538;48.392;9.976;2023-01-01T01:22:01;37.90;;;32.43;;
39864;SDS011;25538;48.392;9.976;2023-01-01T01:24:27;35.15;;;31.42;;
39864;SDS011;25538;48.392;9.976;2023-01-01T01:26:52;34.60;;;31.00;;
39864;SDS011;25538;48.392;9.976;2023-01-01T01:29:18;37.70;;;30.63;;
39864;SDS011;25538;48.392;9.976;2023-01-01T01:31:44;35.43;;;31.97;;
39864;SDS011;25538;48.392;9.976;2023-01-01T01:34:10;32.20;;;28.70;;
39864;SDS011;25538;48.392;9.976;2023-01-01T01:36:36;34.10;;;30.00;;
39864;SDS011;25538;48.392;9.976;2023-01-01T01:39:02;46.10;;;41.60;;
39864;SDS011;25538;48.392;9.976;2023-01-01T01:41:28;32.40;;;28.03;;
39864;SDS011;25538;48.392;9.976;2023-01-01T01:46:28;29.75;;;26.52;;
39864;SDS011;25538;48.392;9.976;2023-01-01T01:48:59;32.70;;;29.10;;
39864;SDS011;25538;48.392;9.976;2023-01-01T01:51:38;32.55;;;29.05;;
39864;SDS011;25538;48.392;9.976;2023-01-01T01:54:07;32.72;;;28.08;;
39864;SDS011;25538;48.392;9.976;2023-01-01T01:56:47;28.42;;;25.27;;
39864;SDS011;25538;48.392;9.976;2023-01-01T01:59:19;31.10;;;27.90;;
39864;SDS011;25538;48.392;9.976;2023-01-01T02:01:49;28.58;;;25.55;;
39864;SDS011;25538;48.392;9.976;2023-01-01T02:04:15;29.00;;;26.10;;
39864;SDS011;25538;48.392;9.976;2023-01-01T02:06:41;25.05;;;22.40;;
39864;SDS011;25538;48.392;9.976;2023-01-01T02:09:08;25.23;;;21.83;;
39864;SDS011;25538;48.392;9.976;2023-01-01T02:11:35;24.63;;;21.65;;
39864;SDS011;25538;48.392;9.976;2023-01-01T02:14:01;22.92;;;20.67;;
39864;SDS011;25538;48.392;9.976;2023-01-01T02:27:56;20.42;;;18.10;;
39864;SDS011;25538;48.392;9.976;2023-01-01T02:30:33;21.80;;;19.52;;
39864;SDS011;25538;48.392;9.976;2023-01-01T02:33:02;24.00;;;19.38;;
39864;SDS011;25538;48.392;9.976;2023-01-01T02:35:40;24.80;;;20.20;;
39864;SDS011;25538;48.392;9.976;2023-01-01T02:38:12;21.73;;;19.48;;
39864;SDS011;25538;48.392;9.976;2023-01-01T02:40:46;21.77;;;19.63;;
39864;SDS011;25538;48.392;9.976;2023-01-01T02:43:15;23.38;;;20.95;;
39864;SDS011;25538;48.392;9.976;2023-01-01T02:45:41;23.98;;;21.08;;
39864;SDS011;25538;48.392;9.976;2023-01-01T02:51:02;28.33;;;25.42;;
39864;SDS011;25538;48.392;9.976;2023-01-01T02:53:36;28.95;;;25.85;;
39864;SDS011;25538;48.392;9.976;2023-01-01T02:56:13;31.58;;;27.85;;
39864;SDS011;25538;48.392;9.976;2023-01-01T02:58:47;35.40;;;31.48;;
39864;SDS011;25538;48.392;9.976;2023-01-01T03:01:52;37.88;;;33.70;;
39864;SDS011;25538;48.392;9.976;2023-01-01T03:06:55;40.40;;;33.97;;
39864;SDS011;25538;48.392;9.976;2023-01-01T03:12:25;34.22;;;30.00;;
39864;SDS011;25538;48.392;9.976;2023-01-01T03:18:05;36.28;;;32.35;;
39864;SDS011;25538;48.392;9.976;2023-01-01T03:20:39;36.50;;;31.20;;
39864;SDS011;25538;48.392;9.976;2023-01-01T03:23:11;39.78;;;35.60;;
39864;SDS011;25538;48.392;9.976;2023-01-01T03:25:46;43.00;;;37.15;;
39864;SDS011;25538;48.392;9.976;2023-01-01T03:28:17;42.85;;;38.35;;
39864;SDS011;25538;48.392;9.976;2023-01-01T03:30:46;41.90;;;36.22;;
39864;SDS011;25538;48.392;9.976;2023-01-01T03:33:20;44.25;;;35.38;;
39864;SDS011;25538;48.392;9.976;2023-01-01T03:36:02;42.63;;;37.75;;
39864;SDS011;25538;48.392;9.976;2023-01-01T03:38:48;40.30;;;36.00;;
39864;SDS011;25538;48.392;9.976;2023-01-01T03:41:23;40.33;;;35.90;;
39864;SDS011;25538;48.392;9.976;2023-01-01T03:46:44;38.33;;;34.25;;
39864;SDS011;25538;48.392;9.976;2023-01-01T03:49:11;40.42;;;33.35;;
39864;SDS011;25538;48.392;9.976;2023-01-01T03:54:20;41.42;;;35.58;;
39864;SDS011;25538;48.392;9.976;2023-01-01T03:56:59;39.08;;;33.63;;
39864;SDS011;25538;48.392;9.976;2023-01-01T03:59:28;40.97;;;35.65;;
39864;SDS011;25538;48.392;9.976;2023-01-01T04:02:03;38.35;;;33.42;;
39864;SDS011;25538;48.392;9.976;2023-01-01T04:04:33;41.38;;;36.90;;
39864;SDS011;25538;48.392;9.976;2023-01-01T04:07:00;40.60;;;36.50;;
39864;SDS011;25538;48.392;9.976;2023-01-01T04:09:29;46.23;;;38.83;;
39864;SDS011;25538;48.392;9.976;2023-01-01T04:11:57;44.13;;;37.95;;
39864;SDS011;25538;48.392;9.976;2023-01-01T04:16:55;42.85;;;38.35;;
39864;SDS011;25538;48.392;9.976;2023-01-01T04:19:22;44.00;;;39.03;;
39864;SDS011;25538;48.392;9.976;2023-01-01T04:21:48;41.60;;;36.90;;
39864;SDS011;25538;48.392;9.976;2023-01-01T04:24:14;48.00;;;41.63;;
39864;SDS011;25538;48.392;9.976;2023-01-01T04:26:40;43.50;;;38.80;;
39864;SDS011;25538;48.392;9.976;2023-01-01T04:29:06;43.30;;;38.63;;
39864;SDS011;25538;48.392;9.976;2023-01-01T04:31:32;41.93;;;35.77;;
39864;SDS011;25538;48.392;9.976;2023-01-01T04:33:59;41.97;;;37.38;;
39864;SDS011;25538;48.392;9.976;2023-01-01T04:36:25;45.47;;;37.43;;
39864;SDS011;25538;48.392;9.976;2023-01-01T04:38:51;45.70;;;37.10;;
39864;SDS011;25538;48.392;9.976;2023-01-01T04:41:17;38.47;;;34.22;;
39864;SDS011;25538;48.392;9.976;2023-01-01T04:43:46;41.50;;;33.10;;
39864;SDS011;25538;48.392;9.976;2023-01-01T04:46:16;37.63;;;33.67;;
39864;SDS011;25538;48.392;9.976;2023-01-01T04:48:43;35.63;;;30.42;;
39864;SDS011;25538;48.392;9.976;2023-01-01T04:51:10;38.30;;;30.43;;
39864;SDS011;25538;48.392;9.976;2023-01-01T04:53:37;34.20;;;27.42;;
39864;SDS011;25538;48.392;9.976;2023-01-01T04:56:04;29.85;;;26.67;;
39864;SDS011;25538;48.392;9.976;2023-01-01T04:58:41;29.88;;;26.75;;
39864;SDS011;25538;48.392;9.976;2023-01-01T05:01:09;31.50;;;28.00;;
39864;SDS011;25538;48.392;9.976;2023-01-01T05:03:40;30.13;;;24.55;;
39864;SDS011;25538;48.392;9.976;2023-01-01T05:06:07;31.43;;;26.53;;
39864;SDS011;25538;48.392;9.976;2023-01-01T05:08:35;29.25;;;26.17;;
39864;SDS011;25538;48.392;9.976;2023-01-01T05:11:03;29.98;;;26.77;;
39864;SDS011;25538;48.392;9.976;2023-01-01T05:13:33;30.35;;;26.95;;
39864;SDS011;25538;48.392;9.976;2023-01-01T05:16:03;30.17;;;27.08;;
39864;SDS011;25538;48.392;9.976;2023-01-01T05:18:30;30.77;;;27.25;;
39864;SDS011;25538;48.392;9.976;2023-01-01T05:21:00;31.48;;;27.92;;
39864;SDS011;25538;48.392;9.976;2023-01-01T05:23:30;32.85;;;28.30;;
39864;SDS011;25538;48.392;9.976;2023-01-01T05:25:56;34.75;;;27.17;;
39864;SDS011;25538;48.392;9.976;2023-01-01T05:28:22;30.48;;;26.92;;
39864;SDS011;25538;48.392;9.976;2023-01-01T05:30:52;28.60;;;24.15;;
39864;SDS011;25538;48.392;9.976;2023-01-01T05:33:18;29.95;;;25.15;;
39864;SDS011;25538;48.392;9.976;2023-01-01T05:35:44;29.98;;;25.38;;
39864;SDS011;25538;48.392;9.976;2023-01-01T05:38:16;29.00;;;24.65;;
39864;SDS011;25538;48.392;9.976;2023-01-01T05:40:42;29.37;;;26.27;;
39864;SDS011;25538;48.392;9.976;2023-01-01T05:43:08;30.83;;;26.70;;
39864;SDS011;25538;48.392;9.976;2023-01-01T05:45:33;28.93;;;25.43;;
39864;SDS011;25538;48.392;9.976;2023-01-01T05:47:59;29.30;;;26.00;;
39864;SDS011;25538;48.392;9.976;2023-01-01T05:50:25;32.20;;;28.03;;
39864;SDS011;25538;48.392;9.976;2023-01-01T05:52:51;27.87;;;24.93;;
39864;SDS011;25538;48.392;9.976;2023-01-01T05:55:17;30.33;;;25.43;;
39864;SDS011;25538;48.392;9.976;2023-01-01T05:57:43;28.13;;;23.90;;
39864;SDS011;25538;48.392;9.976;2023-01-01T06:00:09;29.70;;;24.30;;
39864;SDS011;25538;48.392;9.976;2023-01-01T06:02:35;27.30;;;24.40;;
39864;SDS011;25538;48.392;9.976;2023-01-01T06:05:01;26.87;;;23.37;;
39864;SDS011;25538;48.392;9.976;2023-01-01T06:07:27;25.93;;;23.20;;
39864;SDS011;25538;48.392;9.976;2023-01-01T06:09:53;25.93;;;22.07;;
39864;SDS011;25538;48.392;9.976;2023-01-01T06:12:18;26.90;;;23.00;;
39864;SDS011;25538;48.392;9.976;2023-01-01T06:14:44;27.03;;;21.80;;
39864;SDS011;25538;48.392;9.976;2023-01-01T06:17:10;27.47;;;22.10;;
39864;SDS011;25538;48.392;9.976;2023-01-01T06:19:36;25.80;;;22.20;;
39864;SDS011;25538;48.392;9.976;2023-01-01T06:22:02;27.70;;;24.60;;
39864;SDS011;25538;48.392;9.976;2023-01-01T06:24:28;25.27;;;22.17;;
39864;SDS011;25538;48.392;9.976;2023-01-01T06:26:54;25.27;;;22.27;;
39864;SDS011;25538;48.392;9.976;2023-01-01T06:29:19;25.40;;;22.73;;
39864;SDS011;25538;48.392;9.976;2023-01-01T06:31:45;25.90;;;23.10;;
39864;SDS011;25538;48.392;9.976;2023-01-01T06:34:11;25.93;;;23.13;;
39864;SDS011;25538;48.392;9.976;2023-01-01T06:36:37;26.37;;;23.63;;
39864;SDS011;25538;48.392;9.976;2023-01-01T06:39:03;26.90;;;24.00;;
39864;SDS011;25538;48.392;9.976;2023-01-01T06:41:29;30.77;;;25.35;;
39864;SDS011;25538;48.392;9.976;2023-01-01T06:43:56;26.58;;;23.67;;
39864;SDS011;25538;48.392;9.976;2023-01-01T06:48:58;27.52;;;24.48;;
39864;SDS011;25538;48.392;9.976;2023-01-01T06:51:29;25.83;;;23.05;;
39864;SDS011;25538;48.392;9.976;2023-01-01T06:53:58;31.83;;;24.70;;
39864;SDS011;25538;48.392;9.976;2023-01-01T06:56:24;28.70;;;24.02;;
39864;SDS011;25538;48.392;9.976;2023-01-01T06:58:50;26.85;;;24.15;;
39864;SDS011;25538;48.392;9.976;2023-01-01T07:01:17;24.17;;;21.60;;
39864;SDS011;25538;48.392;9.976;2023-01-01T07:03:49;26.20;;;23.38;;
39864;SDS011;25538;48.392;9.976;2023-01-01T07:06:19;23.80;;;21.08;;
39864;SDS011;25538;48.392;9.976;2023-01-01T07:08:45;26.75;;;20.55;;
39864;SDS011;25538;48.392;9.976;2023-01-01T07:11:11;22.33;;;19.77;;
39864;SDS011;25538;48.392;9.976;2023-01-01T07:13:37;23.58;;;19.92;;
39864;SDS011;25538;48.392;9.976;2023-01-01T07:16:03;23.30;;;19.63;;
39864;SDS011;25538;48.392;9.976;2023-01-01T07:18:30;22.77;;;20.33;;
39864;SDS011;25538;48.392;9.976;2023-01-01T07:21:00;22.30;;;18.75;;
39864;SDS011;25538;48.392;9.976;2023-01-01T07:23:29;23.67;;;19.55;;
39864;SDS011;25538;48.392;9.976;2023-01-01T07:25:57;22.60;;;19.67;;
39864;SDS011;25538;48.392;9.976;2023-01-01T07:28:23;21.15;;;18.92;;
39864;SDS011;25538;48.392;9.976;2023-01-01T07:30:50;22.02;;;19.73;;
39864;SDS011;25538;48.392;9.976;2023-01-01T07:33:18;24.75;;;20.25;;
39864;SDS011;25538;48.392;9.976;2023-01-01T07:35:46;23.80;;;19.80;;
39864;SDS011;25538;48.392;9.976;2023-01-01T07:38:12;23.93;;;20.20;;
39864;SDS011;25538;48.392;9.976;2023-01-01T07:40:39;20.35;;;18.25;;
39864;SDS011;25538;48.392;9.976;2023-01-01T07:43:05;21.55;;;19.33;;
39864;SDS011;25538;48.392;9.976;2023-01-01T07:45:32;22.15;;;19.80;;
39864;SDS011;25538;48.392;9.976;2023-01-01T07:47:59;21.40;;;19.30;;
39864;SDS011;25538;48.392;9.976;2023-01-01T07:50:26;22.48;;;19.10;;
39864;SDS011;25538;48.392;9.976;2023-01-01T07:52:54;20.17;;;18.17;;
39864;SDS011;25538;48.392;9.976;2023-01-01T07:55:20;19.07;;;17.07;;
39864;SDS011;25538;48.392;9.976;2023-01-01T07:57:46;19.27;;;17.23;;
39864;SDS011;25538;48.392;9.976;2023-01-01T08:00:13;20.90;;;18.55;;
39864;SDS011;25538;48.392;9.976;2023-01-01T08:02:41;18.60;;;16.63;;
39864;SDS011;25538;48.392;9.976;2023-01-01T08:05:07;19.77;;;17.80;;
39864;SDS011;25538;48.392;9.976;2023-01-01T08:07:33;21.23;;;19.10;;
39864;SDS011;25538;48.392;9.976;2023-01-01T08:09:59;21.60;;;19.30;;
39864;SDS011;25538;48.392;9.976;2023-01-01T08:12:25;22.67;;;20.27;;
39864;SDS011;25538;48.392;9.976;2023-01-01T08:14:51;21.58;;;19.35;;
39864;SDS011;25538;48.392;9.976;2023-01-01T08:17:17;27.00;;;21.47;;
39864;SDS011;25538;48.392;9.976;2023-01-01T08:19:43;23.60;;;20.93;;
39864;SDS011;25538;48.392;9.976;2023-01-01T08:22:09;21.70;;;19.57;;
39864;SDS011;25538;48.392;9.976;2023-01-01T08:24:35;20.35;;;18.23;;
39864;SDS011;25538;48.392;9.976;2023-01-01T08:27:01;19.60;;;17.73;;
39864;SDS011;25538;48.392;9.976;2023-01-01T08:29:27;19.93;;;17.93;;
39864;SDS011;25538;48.392;9.976;2023-01-01T08:31:53;21.07;;;17.90;;
39864;SDS011;25538;48.392;9.976;2023-01-01T08:34:19;21.30;;;19.20;;
39864;SDS011;25538;48.392;9.976;2023-01-01T08:36:44;20.90;;;18.67;;
39864;SDS011;25538;48.392;9.976;2023-01-01T08:39:10;21.77;;;19.67;;
39864;SDS011;25538;48.392;9.976;2023-01-01T08:41:36;22.07;;;19.83;;
39864;SDS011;25538;48.392;9.976;2023-01-01T08:44:02;19.53;;;17.63;;
39864;SDS011;25538;48.392;9.976;2023-01-01T08:46:28;19.20;;;17.20;;
39864;SDS011;25538;48.392;9.976;2023-01-01T08:48:54;19.30;;;17.20;;
39864;SDS011;25538;48.392;9.976;2023-01-01T08:51:20;20.17;;;18.00;;
39864;SDS011;25538;48.392;9.976;2023-01-01T08:53:46;20.57;;;16.23;;
39864;SDS011;25538;48.392;9.976;2023-01-01T08:56:12;18.07;;;16.17;;
39864;SDS011;25538;48.392;9.976;2023-01-01T08:58:40;19.20;;;16.92;;
39864;SDS011;25538;48.392;9.976;2023-01-01T09:01:07;19.42;;;15.55;;
39864;SDS011;25538;48.392;9.976;2023-01-01T09:03:33;18.00;;;16.10;;
39864;SDS011;25538;48.392;9.976;2023-01-01T09:05:59;15.97;;;14.37;;
39864;SDS011;25538;48.392;9.976;2023-01-01T09:08:26;15.45;;;13.68;;
39864;SDS011;25538;48.392;9.976;2023-01-01T09:10:56;15.65;;;14.15;;
39864;SDS011;25538;48.392;9.976;2023-01-01T09:13:24;14.73;;;13.30;;
39864;SDS011;25538;48.392;9.976;2023-01-01T09:15:50;13.53;;;12.33;;
39864;SDS011;25538;48.392;9.976;2023-01-01T09:18:15;12.20;;;11.10;;
39864;SDS011;25538;48.392;9.976;2023-01-01T09:20:41;12.67;;;11.57;;
39864;SDS011;25538;48.392;9.976;2023-01-01T09:23:07;13.23;;;11.43;;
39864;SDS011;25538;48.392;9.976;2023-01-01T09:25:35;13.50;;;12.20;;
39864;SDS011;25538;48.392;9.976;2023-01-01T09:28:03;12.67;;;11.63;;
39864;SDS011;25538;48.392;9.976;2023-01-01T09:30:31;14.10;;;12.80;;
39864;SDS011;25538;48.392;9.976;2023-01-01T09:32:57;13.93;;;12.73;;
39864;SDS011;25538;48.392;9.976;2023-01-01T09:35:23;14.10;;;12.67;;
39864;SDS011;25538;48.392;9.976;2023-01-01T09:37:48;14.73;;;13.33;;
39864;SDS011;25538;48.392;9.976;2023-01-01T09:40:29;13.77;;;12.47;;
39864;SDS011;25538;48.392;9.976;2023-01-01T09:46:04;12.90;;;11.80;;
39864;SDS011;25538;48.392;9.976;2023-01-01T09:48:32;11.67;;;10.57;;
39864;SDS011;25538;48.392;9.976;2023-01-01T09:51:05;11.53;;;10.40;;
39864;SDS011;25538;48.392;9.976;2023-01-01T09:56:36;10.37;;;9.47;;
39864;SDS011;25538;48.392;9.976;2023-01-01T09:59:07;10.47;;;9.47;;
39864;SDS011;25538;48.392;9.976;2023-01-01T10:04:40;10.13;;;9.13;;
39864;SDS011;25538;48.392;9.976;2023-01-01T10:18:34;10.60;;;9.73;;
39864;SDS011;25538;48.392;9.976;2023-01-01T10:21:08;11.23;;;10.10;;
39864;SDS011;25538;48.392;9.976;2023-01-01T10:23:53;12.30;;;11.10;;
39864;SDS011;25538;48.392;9.976;2023-01-01T10:26:39;10.97;;;10.10;;
39864;SDS011;25538;48.392;9.976;2023-01-01T10:31:34;10.70;;;9.80;;
39864;SDS011;25538;48.392;9.976;2023-01-01T10:34:15;11.37;;;10.00;;
39864;SDS011;25538;48.392;9.976;2023-01-01T10:36:46;10.33;;;9.43;;
39864;SDS011;25538;48.392;9.976;2023-01-01T10:39:15;10.53;;;9.63;;
39864;SDS011;25538;48.392;9.976;2023-01-01T10:41:44;9.67;;;8.77;;
39864;SDS011;25538;48.392;9.976;2023-01-01T10:44:11;11.93;;;9.13;;
39864;SDS011;25538;48.392;9.976;2023-01-01T10:46:46;10.00;;;9.10;;
39864;SDS011;25538;48.392;9.976;2023-01-01T10:49:17;9.37;;;8.57;;
39864;SDS011;25538;48.392;9.976;2023-01-01T10:51:44;10.33;;;9.43;;
39864;SDS011;25538;48.392;9.976;2023-01-01T10:56:50;8.57;;;7.83;;
39864;SDS011;25538;48.392;9.976;2023-01-01T10:59:32;8.10;;;6.57;;
39864;SDS011;25538;48.392;9.976;2023-01-01T11:02:10;9.10;;;7.90;;
39864;SDS011;25538;48.392;9.976;2023-01-01T11:04:40;6.60;;;6.00;;
39864;SDS011;25538;48.392;9.976;2023-01-01T11:07:06;9.17;;;8.30;;
39864;SDS011;25538;48.392;9.976;2023-01-01T11:09:32;7.53;;;6.93;;
39864;SDS011;25538;48.392;9.976;2023-01-01T11:12:04;7.80;;;7.00;;
39864;SDS011;25538;48.392;9.976;2023-01-01T11:17:06;7.03;;;5.57;;
39864;SDS011;25538;48.392;9.976;2023-01-01T11:19:34;6.10;;;5.50;;
39864;SDS011;25538;48.392;9.976;2023-01-01T11:22:02;5.80;;;5.20;;
39864;SDS011;25538;48.392;9.976;2023-01-01T11:24:32;4.90;;;4.50;;
39864;SDS011;25538;48.392;9.976;2023-01-01T11:29:42;5.53;;;5.07;;
39864;SDS011;25538;48.392;9.976;2023-01-01T11:32:11;5.17;;;4.77;;
39864;SDS011;25538;48.392;9.976;2023-01-01T11:34:44;5.37;;;4.70;;
39864;SDS011;25538;48.392;9.976;2023-01-01T11:37:21;5.37;;;4.87;;
39864;SDS011;25538;48.392;9.976;2023-01-01T11:39:58;5.40;;;5.00;;
39864;SDS011;25538;48.392;9.976;2023-01-01T11:44:56;4.27;;;3.87;;
39864;SDS011;25538;48.392;9.976;2023-01-01T11:47:32;4.07;;;3.67;;
39864;SDS011;25538;48.392;9.976;2023-01-01T11:52:41;6.80;;;3.90;;
39864;SDS011;25538;48.392;9.976;2023-01-01T11:58:05;4.83;;;3.47;;
39864;SDS011;25538;48.392;9.976;2023-01-01T12:00:37;4.17;;;2.90;;
39864;SDS011;25538;48.392;9.976;2023-01-01T12:06:02;3.80;;;3.40;;
39864;SDS011;25538;48.392;9.976;2023-01-01T12:08:36;5.10;;;4.10;;
39864;SDS011;25538;48.392;9.976;2023-01-01T12:14:32;3.37;;;3.07;;
39864;SDS011;25538;48.392;9.976;2023-01-01T12:17:08;3.70;;;3.40;;
39864;SDS011;25538;48.392;9.976;2023-01-01T12:19:47;3.70;;;3.40;;
39864;SDS011;25538;48.392;9.976;2023-01-01T12:22:27;3.80;;;3.27;;
39864;SDS011;25538;48.392;9.976;2023-01-01T12:24:53;3.40;;;3.10;;
39864;SDS011;25538;48.392;9.976;2023-01-01T12:30:12;4.03;;;2.93;;
39864;SDS011;25538;48.392;9.976;2023-01-01T12:33:06;3.60;;;3.30;;
39864;SDS011;25538;48.392;9.976;2023-01-01T12:44:00;5.37;;;3.50;;
39864;SDS011;25538;48.392;9.976;2023-01-01T12:46:49;3.37;;;3.17;;
39864;SDS011;25538;48.392;9.976;2023-01-01T12:49:34;3.97;;;3.67;;
39864;SDS011;25538;48.392;9.976;2023-01-01T12:52:52;3.80;;;3.60;;
39864;SDS011;25538;48.392;9.976;2023-01-01T12:55:35;4.10;;;3.50;;
39864;SDS011;25538;48.392;9.976;2023-01-01T12:58:18;3.33;;;3.03;;
39864;SDS011;25538;48.392;9.976;2023-01-01T13:00:57;3.63;;;3.30;;
39864;SDS011;25538;48.392;9.976;2023-01-01T13:03:27;5.17;;;4.70;;
39864;SDS011;25538;48.392;9.976;2023-01-01T13:06:01;4.33;;;4.03;;
39864;SDS011;25538;48.392;9.976;2023-01-01T13:08:29;4.03;;;3.70;;
39864;SDS011;25538;48.392;9.976;2023-01-01T13:10:57;4.00;;;3.70;;
39864;SDS011;25538;48.392;9.976;2023-01-01T13:13:25;3.83;;;3.53;;
39864;SDS011;25538;48.392;9.976;2023-01-01T13:15:52;3.73;;;3.43;;
39864;SDS011;25538;48.392;9.976;2023-01-01T13:18:23;3.40;;;3.10;;
39864;SDS011;25538;48.392;9.976;2023-01-01T13:39:51;5.73;;;3.40;;
39864;SDS011;25538;48.392;9.976;2023-01-01T13:42:39;3.63;;;3.33;;
39864;SDS011;25538;48.392;9.976;2023-01-01T13:45:26;5.00;;;3.40;;
39864;SDS011;25538;48.392;9.976;2023-01-01T13:53:36;4.20;;;3.50;;
39864;SDS011;25538;48.392;9.976;2023-01-01T13:59:11;3.20;;;2.90;;
39864;SDS011;25538;48.392;9.976;2023-01-01T14:01:48;3.43;;;3.07;;
39864;SDS011;25538;48.392;9.976;2023-01-01T14:04:39;4.77;;;3.00;;
39864;SDS011;25538;48.392;9.976;2023-01-01T14:07:15;3.57;;;3.27;;
39864;SDS011;25538;48.392;9.976;2023-01-01T14:09:45;3.00;;;2.80;;
39864;SDS011;25538;48.392;9.976;2023-01-01T14:12:15;3.73;;;3.07;;
39864;SDS011;25538;48.392;9.976;2023-01-01T14:14:43;5.43;;;3.30;;
39864;SDS011;25538;48.392;9.976;2023-01-01T14:17:10;3.30;;;3.00;;
39864;SDS011;25538;48.392;9.976;2023-01-01T14:19:39;3.00;;;2.80;;
39864;SDS011;25538;48.392;9.976;2023-01-01T14:22:06;3.40;;;3.07;;
39864;SDS011;25538;48.392;9.976;2023-01-01T14:24:36;6.03;;;3.13;;
39864;SDS011;25538;48.392;9.976;2023-01-01T14:27:07;3.33;;;3.03;;
39864;SDS011;25538;48.392;9.976;2023-01-01T14:29:33;5.33;;;3.30;;
39864;SDS011;25538;48.392;9.976;2023-01-01T14:32:10;2.93;;;2.73;;
39864;SDS011;25538;48.392;9.976;2023-01-01T14:34:38;3.87;;;3.50;;
39864;SDS011;25538;48.392;9.976;2023-01-01T14:37:05;3.87;;;3.57;;
39864;SDS011;25538;48.392;9.976;2023-01-01T14:40:03;5.20;;;3.53;;
39864;SDS011;25538;48.392;9.976;2023-01-01T14:42:41;3.63;;;3.33;;
39864;SDS011;25538;48.392;9.976;2023-01-01T14:45:12;5.43;;;3.90;;
39864;SDS011;25538;48.392;9.976;2023-01-01T14:47:40;4.50;;;4.07;;
39864;SDS011;25538;48.392;9.976;2023-01-01T14:53:05;7.10;;;4.30;;
39864;SDS011;25538;48.392;9.976;2023-01-01T14:55:38;4.70;;;4.37;;
39864;SDS011;25538;48.392;9.976;2023-01-01T14:58:08;5.67;;;5.10;;
39864;SDS011;25538;48.392;9.976;2023-01-01T15:00:40;8.93;;;7.27;;
39864;SDS011;25538;48.392;9.976;2023-01-01T15:05:40;5.73;;;5.00;;
39864;SDS011;25538;48.392;9.976;2023-01-01T15:08:18;7.67;;;6.23;;
39864;SDS011;25538;48.392;9.976;2023-01-01T15:10:46;6.70;;;6.10;;
39864;SDS011;25538;48.392;9.976;2023-01-01T15:13:30;6.60;;;5.50;;
39864;SDS011;25538;48.392;9.976;2023-01-01T15:16:05;7.97;;;5.13;;
39864;SDS011;25538;48.392;9.976;2023-01-01T15:18:41;4.83;;;4.43;;
39864;SDS011;25538;48.392;9.976;2023-01-01T15:21:14;5.17;;;4.67;;
39864;SDS011;25538;48.392;9.976;2023-01-01T15:23:59;5.90;;;4.80;;
39864;SDS011;25538;48.392;9.976;2023-01-01T15:26:28;9.00;;;8.10;;
39864;SDS011;25538;48.392;9.976;2023-01-01T15:28:58;6.63;;;5.75;;
39864;SDS011;25538;48.392;9.976;2023-01-01T15:32:26;6.75;;;6.05;;
39864;SDS011;25538;48.392;9.976;2023-01-01T15:34:25;19.10;;;13.85;;
39864;SDS011;25538;48.392;9.976;2023-01-01T15:42:40;9.68;;;8.70;;
39864;SDS011;25538;48.392;9.976;2023-01-01T15:45:14;10.15;;;7.90;;
39864;SDS011;25538;48.392;9.976;2023-01-01T15:47:45;7.20;;;6.50;;
39864;SDS011;25538;48.392;9.976;2023-01-01T15:50:19;8.30;;;7.60;;
39864;SDS011;25538;48.392;9.976;2023-01-01T15:52:53;11.07;;;10.07;;
39864;SDS011;25538;48.392;9.976;2023-01-01T15:55:24;12.98;;;11.82;;
39864;SDS011;25538;48.392;9.976;2023-01-01T15:57:53;15.23;;;13.65;;
39864;SDS011;25538;48.392;9.976;2023-01-01T16:00:21;10.70;;;9.60;;
39864;SDS011;25538;48.392;9.976;2023-01-01T16:03:12;8.05;;;7.35;;
39864;SDS011;25538;48.392;9.976;2023-01-01T16:05:45;9.88;;;7.78;;
39864;SDS011;25538;48.392;9.976;2023-01-01T16:08:13;9.48;;;7.82;;
39864;SDS011;25538;48.392;9.976;2023-01-01T16:10:41;10.73;;;8.30;;
39864;SDS011;25538;48.392;9.976;2023-01-01T16:13:07;7.95;;;7.35;;
39864;SDS011;25538;48.392;9.976;2023-01-01T16:15:34;8.95;;;8.15;;
39864;SDS011;25538;48.392;9.976;2023-01-01T16:18:00;10.52;;;8.88;;
39864;SDS011;25538;48.392;9.976;2023-01-01T16:20:27;14.73;;;10.60;;
39864;SDS011;25538;48.392;9.976;2023-01-01T16:22:53;12.95;;;11.07;;
39864;SDS011;25538;48.392;9.976;2023-01-01T16:25:20;15.73;;;10.20;;
39864;SDS011;25538;48.392;9.976;2023-01-01T16:27:47;12.45;;;9.60;;
39864;SDS011;25538;48.392;9.976;2023-01-01T16:30:13;14.30;;;11.25;;
39864;SDS011;25538;48.392;9.976;2023-01-01T16:32:40;15.63;;;10.45;;
39864;SDS011;25538;48.392;9.976;2023-01-01T16:35:10;16.80;;;12.38;;
39864;SDS011;25538;48.392;9.976;2023-01-01T16:37:37;19.23;;;13.43;;
39864;SDS011;25538;48.392;9.976;2023-01-01T16:40:03;14.00;;;12.50;;
39864;SDS011;25538;48.392;9.976;2023-01-01T16:42:30;20.52;;;18.33;;
39864;SDS011;25538;48.392;9.976;2023-01-01T16:44:56;18.43;;;15.50;;
39864;SDS011;25538;48.392;9.976;2023-01-01T16:47:22;16.23;;;14.23;;
39864;SDS011;25538;48.392;9.976;2023-01-01T16:49:48;19.80;;;18.00;;
39864;SDS011;25538;48.392;9.976;2023-01-01T16:52:14;21.03;;;18.70;;
39864;SDS011;25538;48.392;9.976;2023-01-01T16:54:40;23.00;;;17.03;;